Time;durP1;ratioP1;P1;durP2;ratioP2;P2;SDS_P1;SDS_P2;PMS_P1;PMS_P2;Temp;Humidity;BMP_temperature;BMP_pressure;BME280_temperature;BME280_humidity;BME280_pressure;Samples;Min_cycle;Max_cycle;Signal;HPM_P1;HPM_P2
2021/11/17 02:26:41;0.00;0.00;0.62;0.00;0.00;0.62;4.67;3.87;;;22.00;28.00;;;;;;2274158;61;20427;-60
2021/11/17 02:29:54;0.00;0.00;0.62;0.00;0.00;0.62;6.00;4.93;;;21.90;27.90;;;;;;2273298;61;20474;-60
2021/11/17 02:33:12;0.00;0.00;0.62;0.00;0.00;0.62;6.53;5.10;;;21.90;27.90;;;;;;2274202;61;20351;-60
2021/11/17 02:36:32;0.00;0.00;0.62;0.00;0.00;0.62;9.03;5.90;;;21.90;28.00;;;;;;2273775;61;20683;-60
2021/11/17 02:39:58;0.00;0.00;0.62;0.00;0.00;0.62;5.93;5.20;;;21.90;27.90;;;;;;2274260;61;20421;-60
2021/11/17 02:43:05;0.00;0.00;0.62;0.00;0.00;0.62;7.20;5.43;;;21.80;27.70;;;;;;2273777;61;20370;-61
2021/11/17 02:46:15;0.00;0.00;0.62;0.00;0.00;0.62;7.23;5.80;;;21.80;27.60;;;;;;2273902;61;20355;-61
2021/11/17 02:49:21;0.00;0.00;0.62;0.00;0.00;0.62;7.60;6.47;;;21.80;27.50;;;;;;2274118;61;20424;-60
2021/11/17 02:52:32;0.00;0.00;0.62;0.00;0.00;0.62;10.23;6.30;;;21.70;27.40;;;;;;2273387;61;20420;-60
2021/11/17 02:55:45;0.00;0.00;0.62;0.00;0.00;0.62;7.70;6.90;;;21.70;27.40;;;;;;2274187;61;20379;-60
2021/11/17 02:59:12;0.00;0.00;0.62;0.00;0.00;0.62;8.70;5.77;;;21.70;27.30;;;;;;2273645;61;20378;-61
2021/11/17 03:02:33;0.00;0.00;0.62;0.00;0.00;0.62;7.20;5.60;;;21.70;27.40;;;;;;2274146;61;20446;-60
2021/11/17 03:05:55;0.00;0.00;0.62;0.00;0.00;0.62;6.37;5.67;;;21.60;27.20;;;;;;2273622;61;20678;-60
2021/11/17 03:09:12;0.00;0.00;0.62;0.00;0.00;0.62;9.40;6.90;;;21.50;27.10;;;;;;2274203;61;20723;-60
2021/11/17 03:12:28;0.00;0.00;0.62;0.00;0.00;0.62;8.83;6.60;;;21.50;27.10;;;;;;2274176;61;20363;-61
2021/11/17 03:15:40;0.00;0.00;0.62;0.00;0.00;0.62;6.20;5.37;;;21.50;27.00;;;;;;2273720;61;20414;-60
2021/11/17 03:18:47;0.00;0.00;0.62;0.00;0.00;0.62;6.70;5.70;;;21.50;27.00;;;;;;2273912;61;20390;-60
2021/11/17 03:22:06;0.00;0.00;0.62;0.00;0.00;0.62;8.90;6.40;;;21.40;27.10;;;;;;2272986;61;20435;-60
2021/11/17 03:25:34;0.00;0.00;0.62;0.00;0.00;0.62;9.67;7.00;;;21.40;27.10;;;;;;2274167;61;20437;-60
2021/11/17 03:28:48;0.00;0.00;0.62;0.00;0.00;0.62;6.37;5.27;;;21.30;27.00;;;;;;2273152;61;20354;-61
2021/11/17 03:32:12;0.00;0.00;0.62;0.00;0.00;0.62;7.13;5.93;;;21.30;27.10;;;;;;2273922;61;20359;-60
2021/11/17 03:35:32;0.00;0.00;0.62;0.00;0.00;0.62;7.00;5.57;;;21.30;27.00;;;;;;2273454;61;20370;-60
2021/11/17 03:38:44;0.00;0.00;0.62;0.00;0.00;0.62;6.17;5.30;;;21.20;26.90;;;;;;2273944;61;20397;-60
2021/11/17 03:42:01;0.00;0.00;0.62;0.00;0.00;0.62;7.10;5.97;;;21.20;27.00;;;;;;2273664;61;20355;-60
2021/11/17 03:45:22;0.00;0.00;0.62;0.00;0.00;0.62;7.30;5.97;;;21.20;27.00;;;;;;2273500;61;20402;-60
2021/11/17 03:48:31;0.00;0.00;0.62;0.00;0.00;0.62;7.30;5.30;;;21.10;27.00;;;;;;2273980;61;20759;-60
2021/11/17 03:51:38;0.00;0.00;0.62;0.00;0.00;0.62;7.47;5.60;;;21.10;27.00;;;;;;2273134;61;20355;-60
2021/11/17 03:54:55;0.00;0.00;0.62;0.00;0.00;0.62;6.47;5.50;;;21.10;27.00;;;;;;2273985;61;20505;-60
2021/11/17 03:58:00;0.00;0.00;0.62;0.00;0.00;0.62;7.87;6.40;;;21.10;27.00;;;;;;2273050;61;20382;-60
2021/11/17 04:01:18;0.00;0.00;0.62;0.00;0.00;0.62;7.50;5.67;;;21.10;26.90;;;;;;2274069;61;20368;-60
2021/11/17 04:04:27;0.00;0.00;0.62;0.00;0.00;0.62;8.23;5.93;;;21.00;26.80;;;;;;2273667;61;20429;-61
2021/11/17 04:07:44;0.00;0.00;0.62;0.00;0.00;0.62;7.13;6.03;;;21.00;26.80;;;;;;2273667;61;20347;-61
2021/11/17 04:10:56;0.00;0.00;0.62;0.00;0.00;0.62;7.23;5.70;;;20.90;26.70;;;;;;2273870;61;20757;-61
2021/11/17 04:13:55;0.00;0.00;0.62;0.00;0.00;0.62;8.30;5.33;;;20.90;26.70;;;;;;2272753;61;20390;-60
2021/11/17 04:16:59;0.00;0.00;0.62;0.00;0.00;0.62;6.90;5.20;;;20.90;26.70;;;;;;2273914;61;20719;-60
2021/11/17 04:20:00;0.00;0.00;0.62;0.00;0.00;0.62;6.80;5.00;;;20.80;26.70;;;;;;2273273;61;20428;-61
2021/11/17 04:23:10;0.00;0.00;0.62;0.00;0.00;0.62;7.37;5.27;;;20.80;26.80;;;;;;2273890;61;20350;-61
2021/11/17 04:26:28;0.00;0.00;0.62;0.00;0.00;0.62;7.00;5.60;;;20.80;26.80;;;;;;2273886;61;20614;-61
2021/11/17 04:29:48;0.00;0.00;0.62;0.00;0.00;0.62;5.80;4.77;;;20.70;26.80;;;;;;2273514;61;20390;-66
2021/11/17 04:32:56;0.00;0.00;0.62;0.00;0.00;0.62;6.70;5.30;;;20.70;26.80;;;;;;2273569;61;20430;-61
2021/11/17 04:36:13;0.00;0.00;0.62;0.00;0.00;0.62;8.57;5.63;;;20.70;26.90;;;;;;2272936;61;20385;-61
2021/11/17 04:39:45;0.00;0.00;0.62;0.00;0.00;0.62;6.97;5.37;;;20.70;27.00;;;;;;2274013;61;20360;-61
2021/11/17 04:43:01;0.00;0.00;0.62;0.00;0.00;0.62;6.63;5.23;;;20.70;26.90;;;;;;2272780;61;20374;-62
2021/11/17 04:46:05;0.00;0.00;0.62;0.00;0.00;0.62;5.90;4.50;;;20.60;26.80;;;;;;2274106;61;20391;-60
2021/11/17 04:49:12;0.00;0.00;0.62;0.00;0.00;0.62;6.30;4.80;;;20.60;27.00;;;;;;2273560;61;20397;-59
2021/11/17 04:52:21;0.00;0.00;0.62;0.00;0.00;0.62;5.57;4.83;;;20.60;27.00;;;;;;2273614;61;20775;-61
2021/11/17 04:55:36;0.00;0.00;0.62;0.00;0.00;0.62;4.80;3.60;;;20.60;27.00;;;;;;2273705;61;20410;-59
2021/11/17 04:58:48;0.00;0.00;0.62;0.00;0.00;0.62;5.87;4.87;;;20.50;26.90;;;;;;2272990;61;20417;-61
2021/11/17 05:02:11;0.00;0.00;0.62;0.00;0.00;0.62;7.40;5.50;;;20.50;27.50;;;;;;2273863;61;20664;-61
2021/11/17 05:05:26;0.00;0.00;0.62;0.00;0.00;0.62;5.70;4.53;;;20.50;26.90;;;;;;2272637;61;20387;-60
2021/11/17 05:08:23;0.00;0.00;0.62;0.00;0.00;0.62;5.90;4.80;;;20.50;26.90;;;;;;2273993;61;20383;-59
2021/11/17 05:11:26;0.00;0.00;0.62;0.00;0.00;0.62;5.40;4.03;;;20.50;26.90;;;;;;2273093;61;20371;-59
2021/11/17 05:14:24;0.00;0.00;0.62;0.00;0.00;0.62;5.97;4.27;;;20.50;26.90;;;;;;2273351;61;20366;-59
2021/11/17 05:17:26;0.00;0.00;0.62;0.00;0.00;0.62;6.47;4.23;;;20.40;26.90;;;;;;2273568;61;20579;-59
2021/11/17 05:20:30;0.00;0.00;0.62;0.00;0.00;0.62;5.00;3.40;;;20.50;27.00;;;;;;2272653;61;20377;-59
2021/11/17 05:23:36;0.00;0.00;0.62;0.00;0.00;0.62;6.00;4.60;;;20.50;26.90;;;;;;2273752;61;20379;-61
2021/11/17 05:26:41;0.00;0.00;0.62;0.00;0.00;0.62;4.73;3.80;;;20.40;26.90;;;;;;2272741;61;20570;-61
2021/11/17 05:29:44;0.00;0.00;0.62;0.00;0.00;0.62;4.40;3.50;;;20.50;26.90;;;;;;2273917;61;20397;-59
2021/11/17 05:32:59;0.00;0.00;0.62;0.00;0.00;0.62;5.30;3.57;;;20.40;26.90;;;;;;2273469;61;20392;-61
2021/11/17 05:36:03;0.00;0.00;0.62;0.00;0.00;0.62;6.60;4.00;;;20.40;26.90;;;;;;2273340;61;20378;-61
2021/11/17 05:39:11;0.00;0.00;0.62;0.00;0.00;0.62;5.00;3.60;;;20.40;26.90;;;;;;2273500;61;20398;-59
2021/11/17 05:42:14;0.00;0.00;0.62;0.00;0.00;0.62;5.90;4.10;;;20.40;26.90;;;;;;2272707;61;20352;-61
2021/11/17 05:45:20;0.00;0.00;0.62;0.00;0.00;0.62;5.03;4.03;;;20.40;26.90;;;;;;2273950;61;20755;-59
2021/11/17 05:48:23;0.00;0.00;0.62;0.00;0.00;0.62;4.63;2.83;;;20.40;26.90;;;;;;2273469;61;20359;-59
2021/11/17 05:51:32;0.00;0.00;0.62;0.00;0.00;0.62;5.07;4.07;;;20.40;26.90;;;;;;2274131;61;20359;-61
2021/11/17 05:54:35;0.00;0.00;0.62;0.00;0.00;0.62;4.40;3.40;;;20.40;26.90;;;;;;2274086;61;20395;-61
2021/11/17 05:57:45;0.00;0.00;0.62;0.00;0.00;0.62;5.50;4.30;;;20.40;26.90;;;;;;2273412;61;20350;-62
2021/11/17 06:01:11;0.00;0.00;0.62;0.00;0.00;0.62;5.20;3.50;;;20.40;26.90;;;;;;2274440;61;20727;-60
2021/11/17 06:03:57;0.00;0.00;0.62;0.00;0.00;0.62;5.50;3.97;;;20.40;26.90;;;;;;2273197;61;20451;-60
2021/11/17 06:06:41;0.00;0.00;0.62;0.00;0.00;0.62;3.43;2.87;;;20.40;26.90;;;;;;2275272;61;20387;-61
2021/11/17 06:09:25;0.00;0.00;0.62;0.00;0.00;0.62;4.90;3.70;;;20.40;26.90;;;;;;2270103;61;20345;-61
2021/11/17 06:12:14;0.00;0.00;0.62;0.00;0.00;0.62;4.37;3.53;;;20.40;26.90;;;;;;2269710;61;20371;-61
2021/11/17 06:14:58;0.00;0.00;0.62;0.00;0.00;0.62;4.90;3.50;;;20.40;26.90;;;;;;2270348;61;20426;-60
2021/11/17 06:17:46;0.00;0.00;0.62;0.00;0.00;0.62;5.80;4.20;;;20.30;26.80;;;;;;2269660;61;20364;-61
2021/11/17 06:20:31;0.00;0.00;0.62;0.00;0.00;0.62;8.60;4.10;;;20.30;26.80;;;;;;2269925;61;20403;-60
2021/11/17 06:23:22;0.00;0.00;0.62;0.00;0.00;0.62;3.93;3.23;;;20.30;26.80;;;;;;2269914;61;20364;-60
2021/11/17 06:26:09;0.00;0.00;0.62;0.00;0.00;0.62;4.80;3.57;;;20.30;26.80;;;;;;2269238;61;20735;-61
2021/11/17 06:28:58;0.00;0.00;0.62;0.00;0.00;0.62;4.43;3.40;;;20.30;26.80;;;;;;2270273;61;20368;-61
2021/11/17 06:31:43;0.00;0.00;0.62;0.00;0.00;0.62;5.80;3.87;;;20.30;26.80;;;;;;2270125;61;20380;-59
2021/11/17 06:34:33;0.00;0.00;0.62;0.00;0.00;0.62;4.03;3.03;;;20.30;26.80;;;;;;2268986;61;20414;-61
2021/11/17 06:37:22;0.00;0.00;0.62;0.00;0.00;0.62;4.80;3.70;;;20.30;26.80;;;;;;2270174;61;20364;-60
2021/11/17 06:40:13;0.00;0.00;0.62;0.00;0.00;0.62;3.90;3.17;;;20.30;26.80;;;;;;2269584;61;20363;-60
2021/11/17 06:43:01;0.00;0.00;0.62;0.00;0.00;0.62;5.00;3.90;;;20.30;26.80;;;;;;2269610;61;20380;-61
2021/11/17 06:45:52;0.00;0.00;0.62;0.00;0.00;0.62;3.90;3.20;;;20.30;26.80;;;;;;2269957;61;20392;-61
2021/11/17 06:48:37;0.00;0.00;0.62;0.00;0.00;0.62;4.07;3.60;;;20.30;26.80;;;;;;2269251;61;20402;-61
2021/11/17 06:51:21;0.00;0.00;0.62;0.00;0.00;0.62;5.10;3.70;;;20.30;26.80;;;;;;2269785;61;20728;-59
2021/11/17 06:54:05;0.00;0.00;0.62;0.00;0.00;0.62;4.50;3.03;;;20.30;26.80;;;;;;2269872;61;20380;-61
2021/11/17 06:56:50;0.00;0.00;0.62;0.00;0.00;0.62;4.90;3.60;;;20.30;26.80;;;;;;2269280;61;20763;-63
2021/11/17 06:59:35;0.00;0.00;0.62;0.00;0.00;0.62;5.07;3.50;;;20.30;26.80;;;;;;2270369;61;20360;-60
2021/11/17 07:02:20;0.00;0.00;0.62;0.00;0.00;0.62;4.50;3.27;;;20.30;26.80;;;;;;2269394;61;20452;-61
2021/11/17 07:05:08;0.00;0.00;0.62;0.00;0.00;0.62;4.93;3.70;;;20.30;26.80;;;;;;2269666;61;20503;-61
2021/11/17 07:07:54;0.00;0.00;0.62;0.00;0.00;0.62;4.83;3.30;;;20.30;26.80;;;;;;2269835;61;20375;-61
2021/11/17 07:10:39;0.00;0.00;0.62;0.00;0.00;0.62;3.90;2.77;;;20.30;26.80;;;;;;2268780;61;20418;-61
2021/11/17 07:13:24;0.00;0.00;0.62;0.00;0.00;0.62;5.53;3.93;;;20.30;26.80;;;;;;2270070;61;20364;-61
2021/11/17 07:16:10;0.00;0.00;0.62;0.00;0.00;0.62;5.37;3.57;;;20.20;26.70;;;;;;2270123;61;20352;-61
2021/11/17 07:18:56;0.00;0.00;0.62;0.00;0.00;0.62;3.30;2.80;;;20.20;26.80;;;;;;2269591;61;20394;-60
2021/11/17 07:21:43;0.00;0.00;0.62;0.00;0.00;0.62;4.60;3.10;;;20.20;26.80;;;;;;2270309;61;20778;-59
2021/11/17 07:24:29;0.00;0.00;0.62;0.00;0.00;0.62;3.27;2.73;;;20.20;26.80;;;;;;2269685;61;20476;-61
2021/11/17 07:27:22;0.00;0.00;0.62;0.00;0.00;0.62;3.87;2.90;;;20.20;26.80;;;;;;2269803;61;20360;-61
2021/11/17 07:30:09;0.00;0.00;0.62;0.00;0.00;0.62;4.23;3.40;;;20.20;26.80;;;;;;2270094;61;20608;-59
2021/11/17 07:32:55;0.00;0.00;0.62;0.00;0.00;0.62;4.70;3.63;;;20.20;26.80;;;;;;2269247;61;20418;-61
2021/11/17 07:35:45;0.00;0.00;0.62;0.00;0.00;0.62;5.30;3.87;;;20.20;26.80;;;;;;2270270;61;20769;-61
2021/11/17 07:38:30;0.00;0.00;0.62;0.00;0.00;0.62;5.40;3.53;;;20.20;26.80;;;;;;2270080;61;20472;-61
2021/11/17 07:41:15;0.00;0.00;0.62;0.00;0.00;0.62;4.90;3.13;;;20.20;26.80;;;;;;2269621;61;20360;-61
2021/11/17 07:44:00;0.00;0.00;0.62;0.00;0.00;0.62;3.63;3.10;;;20.20;26.80;;;;;;2270020;61;20442;-61
2021/11/17 07:46:46;0.00;0.00;0.62;0.00;0.00;0.62;4.40;3.43;;;20.20;26.70;;;;;;2269700;61;20371;-61
2021/11/17 07:49:31;0.00;0.00;0.62;0.00;0.00;0.62;4.00;3.00;;;20.20;26.80;;;;;;2269855;61;20728;-61
2021/11/17 07:52:17;0.00;0.00;0.62;0.00;0.00;0.62;3.90;2.90;;;20.20;26.80;;;;;;2269894;61;20364;-61
2021/11/17 07:55:04;0.00;0.00;0.62;0.00;0.00;0.62;5.00;3.27;;;20.20;26.90;;;;;;2269277;61;20383;-60
2021/11/17 07:57:52;0.00;0.00;0.62;0.00;0.00;0.62;4.67;3.07;;;20.20;26.90;;;;;;2270225;61;20432;-60
2021/11/17 08:00:41;0.00;0.00;0.62;0.00;0.00;0.62;4.80;3.33;;;20.20;26.90;;;;;;2269865;61;20383;-61
2021/11/17 08:03:29;0.00;0.00;0.62;0.00;0.00;0.62;4.90;3.60;;;20.20;26.90;;;;;;2269408;61;20371;-61
2021/11/17 08:06:17;0.00;0.00;0.62;0.00;0.00;0.62;6.40;3.40;;;20.20;26.90;;;;;;2270098;61;20359;-59
2021/11/17 08:09:03;0.00;0.00;0.62;0.00;0.00;0.62;5.07;3.60;;;20.20;26.90;;;;;;2269343;61;20352;-61
2021/11/17 08:11:48;0.00;0.00;0.62;0.00;0.00;0.62;4.30;3.40;;;20.20;27.00;;;;;;2269810;61;20671;-61
2021/11/17 08:14:32;0.00;0.00;0.62;0.00;0.00;0.62;5.17;3.50;;;20.20;27.00;;;;;;2269889;61;20379;-61
2021/11/17 08:17:19;0.00;0.00;0.62;0.00;0.00;0.62;4.53;3.57;;;20.20;27.00;;;;;;2269318;61;20360;-60
2021/11/17 08:20:05;0.00;0.00;0.62;0.00;0.00;0.62;12.30;4.00;;;20.20;27.00;;;;;;2270001;61;20359;-61
2021/11/17 08:22:53;0.00;0.00;0.62;0.00;0.00;0.62;5.03;3.77;;;20.20;27.00;;;;;;2269618;61;20439;-64
2021/11/17 08:25:24;0.00;0.00;0.62;0.00;0.00;0.62;4.47;3.47;;;20.20;27.00;;;;;;2269325;61;20378;-62
2021/11/17 08:28:11;0.00;0.00;0.62;0.00;0.00;0.62;4.00;3.50;;;20.20;27.10;;;;;;2270126;61;20364;-63
2021/11/17 08:30:56;0.00;0.00;0.62;0.00;0.00;0.62;3.77;3.17;;;20.20;27.20;;;;;;2269599;61;20754;-64
2021/11/17 08:33:43;0.00;0.00;0.62;0.00;0.00;0.62;5.90;3.90;;;20.20;27.20;;;;;;2269588;61;20403;-61
2021/11/17 08:36:28;0.00;0.00;0.62;0.00;0.00;0.62;5.80;4.00;;;20.20;27.20;;;;;;2269632;61;20419;-63
2021/11/17 08:39:18;0.00;0.00;0.62;0.00;0.00;0.62;4.40;3.57;;;20.30;27.30;;;;;;2269037;61;20588;-64
2021/11/17 08:42:08;0.00;0.00;0.62;0.00;0.00;0.62;6.83;2.90;;;20.30;27.30;;;;;;2272741;61;20727;-63
2021/11/17 08:44:54;0.00;0.00;0.62;0.00;0.00;0.62;3.67;2.90;;;20.30;27.30;;;;;;2273043;61;20390;-62
2021/11/17 08:47:39;0.00;0.00;0.62;0.00;0.00;0.62;4.70;3.73;;;20.30;27.80;;;;;;2273377;61;20367;-62
2021/11/17 08:50:28;0.00;0.00;0.62;0.00;0.00;0.62;3.70;2.73;;;20.30;27.30;;;;;;2273504;61;20398;-63
2021/11/17 08:53:17;0.00;0.00;0.62;0.00;0.00;0.62;3.50;2.70;;;20.40;27.30;;;;;;2272149;61;20479;-62
2021/11/17 08:56:03;0.00;0.00;0.62;0.00;0.00;0.62;3.80;3.20;;;20.40;27.30;;;;;;2270080;61;20594;-62
2021/11/17 08:58:49;0.00;0.00;0.62;0.00;0.00;0.62;3.90;3.20;;;20.40;27.20;;;;;;2547945;53;20355;-63
2021/11/17 09:01:34;0.00;0.00;0.62;0.00;0.00;0.62;4.30;3.70;;;20.50;27.30;;;;;;2271247;61;20379;-63
2021/11/17 09:07:18;0.00;0.00;0.62;0.00;0.00;0.62;4.30;3.30;;;20.50;27.10;;;;;;2390920;55;20408;-63
2021/11/17 09:10:05;0.00;0.00;0.62;0.00;0.00;0.62;4.30;3.03;;;20.50;27.00;;;;;;2237803;62;20726;-64
2021/11/17 09:12:51;0.00;0.00;0.62;0.00;0.00;0.62;4.00;2.90;;;20.50;26.90;;;;;;2237439;62;20391;-64
2021/11/17 09:15:41;0.00;0.00;0.62;0.00;0.00;0.62;4.27;3.17;;;20.50;26.90;;;;;;2236704;62;20480;-65
2021/11/17 09:18:29;0.00;0.00;0.62;0.00;0.00;0.62;4.50;3.10;;;20.50;26.90;;;;;;2237662;62;20594;-64
2021/11/17 09:21:18;0.00;0.00;0.62;0.00;0.00;0.62;3.97;3.50;;;20.50;26.90;;;;;;2238254;62;20403;-64
2021/11/17 09:24:05;0.00;0.00;0.62;0.00;0.00;0.62;4.27;2.93;;;20.50;27.00;;;;;;2238585;62;20522;-63
2021/11/17 09:26:52;0.00;0.00;0.62;0.00;0.00;0.62;4.87;3.40;;;20.50;26.90;;;;;;2238421;62;20386;-63
2021/11/17 09:29:37;0.00;0.00;0.62;0.00;0.00;0.62;5.07;3.13;;;20.50;26.90;;;;;;2237685;62;20359;-64
2021/11/17 09:32:23;0.00;0.00;0.62;0.00;0.00;0.62;3.20;2.60;;;20.50;27.00;;;;;;2238723;62;20451;-66
2021/11/17 09:35:11;0.00;0.00;0.62;0.00;0.00;0.62;2.90;2.20;;;20.50;27.20;;;;;;2238577;62;20367;-68
2021/11/17 09:37:56;0.00;0.00;0.62;0.00;0.00;0.62;2.90;2.37;;;20.50;27.30;;;;;;2237519;62;20650;-67
2021/11/17 09:40:46;0.00;0.00;0.62;0.00;0.00;0.62;2.57;2.07;;;20.50;27.30;;;;;;2238629;62;20346;-66
2021/11/17 09:43:38;0.00;0.00;0.62;0.00;0.00;0.62;3.00;2.50;;;20.50;27.40;;;;;;2238483;62;20363;-67
2021/11/17 09:46:27;0.00;0.00;0.62;0.00;0.00;0.62;2.70;2.10;;;20.50;27.40;;;;;;2238518;62;20372;-65
2021/11/17 09:49:19;0.00;0.00;0.62;0.00;0.00;0.62;2.70;2.23;;;20.50;27.40;;;;;;2238729;62;20391;-65
2021/11/17 09:52:09;0.00;0.00;0.62;0.00;0.00;0.62;2.40;1.97;;;20.50;27.40;;;;;;2237378;62;20362;-66
2021/11/17 09:55:02;0.00;0.00;0.62;0.00;0.00;0.62;2.50;1.93;;;20.60;27.50;;;;;;2238585;62;20436;-65
2021/11/17 09:57:51;0.00;0.00;0.62;0.00;0.00;0.62;3.60;1.70;;;20.60;27.50;;;;;;2238488;62;20742;-66
2021/11/17 10:00:44;0.00;0.00;0.62;0.00;0.00;0.62;2.43;2.10;;;20.60;27.50;;;;;;2237880;62;20359;-65
2021/11/17 10:03:34;0.00;0.00;0.62;0.00;0.00;0.62;2.60;2.10;;;20.70;27.50;;;;;;2238658;62;20614;-66
2021/11/17 10:15:31;0.00;0.00;0.62;0.00;0.00;0.62;2.53;1.90;;;20.70;27.50;;;;;;2238007;62;20604;-65
2021/11/17 10:18:36;0.00;0.00;0.62;0.00;0.00;0.62;2.23;2.00;;;20.70;27.50;;;;;;2238537;62;20815;-66
2021/11/17 10:21:33;0.00;0.00;0.62;0.00;0.00;0.62;2.33;1.73;;;20.70;27.50;;;;;;2237440;62;20374;-66
2021/11/17 10:24:20;0.00;0.00;0.62;0.00;0.00;0.62;2.63;1.83;;;20.80;27.50;;;;;;2238549;62;20610;-64
2021/11/17 10:27:06;0.00;0.00;0.62;0.00;0.00;0.62;2.37;1.70;;;20.80;27.50;;;;;;2238370;62;20459;-66
2021/11/17 10:29:59;0.00;0.00;0.62;0.00;0.00;0.62;3.07;1.80;;;20.80;27.50;;;;;;2237417;62;20726;-67
2021/11/17 10:32:47;0.00;0.00;0.62;0.00;0.00;0.62;1.80;1.50;;;20.80;27.50;;;;;;2238478;62;20380;-70
2021/11/17 10:35:38;0.00;0.00;0.62;0.00;0.00;0.62;3.50;1.70;;;20.90;27.60;;;;;;2237426;62;20430;-66
2021/11/17 10:38:29;0.00;0.00;0.62;0.00;0.00;0.62;2.40;2.00;;;20.90;27.70;;;;;;2238460;62;20755;-65
2021/11/17 10:41:22;0.00;0.00;0.62;0.00;0.00;0.62;2.33;1.83;;;20.90;27.60;;;;;;2238479;62;20408;-67
2021/11/17 10:44:10;0.00;0.00;0.62;0.00;0.00;0.62;2.77;1.97;;;20.90;27.70;;;;;;2237326;62;20387;-68
2021/11/17 10:47:00;0.00;0.00;0.62;0.00;0.00;0.62;3.50;1.40;;;20.90;27.60;;;;;;2238304;62;20424;-66
2021/11/17 10:49:50;0.00;0.00;0.62;0.00;0.00;0.62;2.10;1.83;;;20.90;27.60;;;;;;2238078;62;20376;-68
2021/11/17 10:52:44;0.00;0.00;0.62;0.00;0.00;0.62;2.50;1.80;;;21.00;27.70;;;;;;2237938;62;20732;-65
2021/11/17 10:55:36;0.00;0.00;0.62;0.00;0.00;0.62;2.60;1.67;;;21.00;27.70;;;;;;2238371;62;20371;-65
2021/11/17 10:58:24;0.00;0.00;0.62;0.00;0.00;0.62;2.40;1.83;;;21.00;27.70;;;;;;2237154;62;20523;-66
2021/11/17 11:01:13;0.00;0.00;0.62;0.00;0.00;0.62;4.93;1.80;;;21.00;27.70;;;;;;2238418;62;20723;-65
2021/11/17 11:04:02;0.00;0.00;0.62;0.00;0.00;0.62;2.60;2.10;;;21.00;27.60;;;;;;2238471;62;20425;-68
2021/11/17 11:06:53;0.00;0.00;0.62;0.00;0.00;0.62;2.23;1.33;;;21.00;27.60;;;;;;2237308;62;20417;-64
2021/11/17 11:09:44;0.00;0.00;0.62;0.00;0.00;0.62;2.63;1.63;;;21.00;27.60;;;;;;2238344;62;20367;-64
2021/11/17 11:12:31;0.00;0.00;0.62;0.00;0.00;0.62;2.17;1.57;;;21.10;27.70;;;;;;2237558;62;20364;-63
2021/11/17 11:15:21;0.00;0.00;0.62;0.00;0.00;0.62;2.10;1.67;;;21.10;27.70;;;;;;2238345;62;20825;-63
2021/11/17 11:18:36;0.00;0.00;0.62;0.00;0.00;0.62;2.40;1.93;;;21.10;27.70;;;;;;2238365;62;20415;-69
2021/11/17 11:21:38;0.00;0.00;0.62;0.00;0.00;0.62;2.17;1.77;;;21.10;27.70;;;;;;2237556;62;20364;-64
2021/11/17 11:24:29;0.00;0.00;0.62;0.00;0.00;0.62;3.90;1.70;;;21.10;27.70;;;;;;2238348;62;20611;-64
2021/11/17 11:27:26;0.00;0.00;0.62;0.00;0.00;0.62;2.20;1.50;;;21.10;27.70;;;;;;2237807;62;20383;-66
2021/11/17 11:30:42;0.00;0.00;0.62;0.00;0.00;0.62;2.77;1.60;;;21.10;27.70;;;;;;2238324;62;20587;-65
2021/11/17 11:33:31;0.00;0.00;0.62;0.00;0.00;0.62;2.60;2.20;;;21.10;27.80;;;;;;2238339;62;20475;-68
2021/11/17 11:36:44;0.00;0.00;0.62;0.00;0.00;0.62;2.03;1.53;;;21.20;27.80;;;;;;2237235;62;20408;-66
2021/11/17 11:39:43;0.00;0.00;0.62;0.00;0.00;0.62;4.20;2.90;;;21.20;27.80;;;;;;2238294;62;20363;-68
2021/11/17 11:43:21;0.00;0.00;0.62;0.00;0.00;0.62;3.73;2.70;;;21.20;27.80;;;;;;2237001;62;20621;-65
2021/11/17 11:46:30;0.00;0.00;0.62;0.00;0.00;0.62;3.40;2.20;;;21.20;27.80;;;;;;2238205;62;20368;-66
2021/11/17 11:49:35;0.00;0.00;0.62;0.00;0.00;0.62;3.20;2.07;;;21.20;27.70;;;;;;2237576;62;20370;-65
2021/11/17 11:52:29;0.00;0.00;0.62;0.00;0.00;0.62;3.43;2.50;;;21.20;27.70;;;;;;2237876;62;20604;-66
2021/11/17 11:55:19;0.00;0.00;0.62;0.00;0.00;0.62;3.00;2.30;;;21.30;27.70;;;;;;2238213;62;20478;-68
2021/11/17 11:58:40;0.00;0.00;0.62;0.00;0.00;0.62;3.20;2.47;;;21.20;27.70;;;;;;2237280;62;20387;-68
2021/11/17 12:01:26;0.00;0.00;0.62;0.00;0.00;0.62;2.67;2.20;;;21.20;27.70;;;;;;2238247;62;20352;-67
2021/11/17 12:04:19;0.00;0.00;0.62;0.00;0.00;0.62;2.57;2.20;;;21.30;27.70;;;;;;2237760;62;20814;-66
2021/11/17 12:07:10;0.00;0.00;0.62;0.00;0.00;0.62;2.40;2.10;;;21.30;27.70;;;;;;2237906;62;20600;-65
2021/11/17 12:10:23;0.00;0.00;0.62;0.00;0.00;0.62;2.37;1.80;;;21.30;27.80;;;;;;2238222;62;20627;-68
2021/11/17 12:13:13;0.00;0.00;0.62;0.00;0.00;0.62;2.90;2.27;;;21.30;27.80;;;;;;2237556;62;20412;-69
2021/11/17 12:16:07;0.00;0.00;0.62;0.00;0.00;0.62;3.20;2.50;;;21.30;27.80;;;;;;2238191;62;20707;-65
2021/11/17 12:18:56;0.00;0.00;0.62;0.00;0.00;0.62;3.03;2.43;;;21.30;27.80;;;;;;2237870;62;20395;-64
2021/11/17 12:21:55;0.00;0.00;0.62;0.00;0.00;0.62;2.87;1.93;;;21.30;27.80;;;;;;2238200;62;20363;-67
2021/11/17 12:24:42;0.00;0.00;0.62;0.00;0.00;0.62;3.57;2.33;;;21.30;27.80;;;;;;2238205;62;20423;-63
2021/11/17 12:27:34;0.00;0.00;0.62;0.00;0.00;0.62;2.23;1.93;;;21.40;27.90;;;;;;2236882;62;20423;-63
2021/11/17 12:30:35;0.00;0.00;0.62;0.00;0.00;0.62;2.50;1.87;;;21.40;27.90;;;;;;2238027;62;20364;-66
2021/11/17 12:33:25;0.00;0.00;0.62;0.00;0.00;0.62;2.30;1.90;;;21.40;27.90;;;;;;2238026;62;20370;-64
2021/11/17 12:36:20;0.00;0.00;0.62;0.00;0.00;0.62;3.00;2.33;;;21.40;27.90;;;;;;2237557;62;20395;-64
2021/11/17 12:39:11;0.00;0.00;0.62;0.00;0.00;0.62;2.83;2.17;;;21.40;27.90;;;;;;2238042;62;20735;-65
2021/11/17 12:41:59;0.00;0.00;0.62;0.00;0.00;0.62;3.27;2.20;;;21.40;27.90;;;;;;2237126;62;20407;-66
2021/11/17 12:44:48;0.00;0.00;0.62;0.00;0.00;0.62;3.67;2.23;;;21.40;27.90;;;;;;2238024;62;20400;-62
2021/11/17 12:47:50;0.00;0.00;0.62;0.00;0.00;0.62;2.40;1.80;;;21.40;27.90;;;;;;2235918;62;20391;-65
2021/11/17 12:50:39;0.00;0.00;0.62;0.00;0.00;0.62;2.40;1.90;;;21.40;27.90;;;;;;2237213;62;20414;-69
2021/11/17 12:53:30;0.00;0.00;0.62;0.00;0.00;0.62;4.63;3.03;;;21.50;28.00;;;;;;2238128;62;20396;-65
2021/11/17 12:56:23;0.00;0.00;0.62;0.00;0.00;0.62;5.57;3.30;;;21.40;27.90;;;;;;2236918;62;20484;-68
2021/11/17 12:59:14;0.00;0.00;0.62;0.00;0.00;0.62;4.30;3.60;;;21.40;27.90;;;;;;2237972;62;20449;-67
2021/11/17 13:02:05;0.00;0.00;0.62;0.00;0.00;0.62;4.13;3.23;;;21.50;27.90;;;;;;2237973;62;20774;-64
2021/11/17 13:04:54;0.00;0.00;0.62;0.00;0.00;0.62;4.10;3.37;;;21.40;28.30;;;;;;2236958;62;20463;-63
2021/11/17 13:07:48;0.00;0.00;0.62;0.00;0.00;0.62;4.90;2.83;;;21.40;27.80;;;;;;2237874;62;20512;-65
2021/11/17 13:10:38;0.00;0.00;0.62;0.00;0.00;0.62;3.47;2.30;;;21.50;27.80;;;;;;2237701;62;20364;-66
2021/11/17 13:13:25;0.00;0.00;0.62;0.00;0.00;0.62;2.60;2.20;;;21.40;27.70;;;;;;2238016;62;20376;-62
2021/11/17 13:16:13;0.00;0.00;0.62;0.00;0.00;0.62;4.97;2.70;;;21.50;27.80;;;;;;2237917;62;20348;-61
2021/11/17 13:19:01;0.00;0.00;0.62;0.00;0.00;0.62;3.47;2.73;;;21.50;27.70;;;;;;2236948;62;20404;-64
2021/11/17 13:21:52;0.00;0.00;0.62;0.00;0.00;0.62;4.13;3.00;;;21.50;27.70;;;;;;2237656;62;20688;-66
2021/11/17 13:24:42;0.00;0.00;0.62;0.00;0.00;0.62;2.50;1.93;;;21.50;27.70;;;;;;2237583;62;20867;-66
2021/11/17 13:27:43;0.00;0.00;0.62;0.00;0.00;0.62;3.40;2.47;;;21.50;27.70;;;;;;2236961;62;20780;-62
2021/11/17 13:30:38;0.00;0.00;0.62;0.00;0.00;0.62;2.90;2.30;;;21.50;27.70;;;;;;2238009;62;20439;-62
2021/11/17 13:33:26;0.00;0.00;0.62;0.00;0.00;0.62;3.50;2.50;;;21.50;27.70;;;;;;2236997;62;20427;-64
2021/11/17 13:36:14;0.00;0.00;0.62;0.00;0.00;0.62;4.53;2.60;;;21.50;27.70;;;;;;2237985;62;20391;-63
2021/11/17 13:38:59;0.00;0.00;0.62;0.00;0.00;0.62;3.93;2.20;;;21.50;27.70;;;;;;2237879;62;20725;-64
2021/11/17 13:41:47;0.00;0.00;0.62;0.00;0.00;0.62;2.40;2.10;;;21.50;27.70;;;;;;2236958;62;20367;-64
2021/11/17 13:44:33;0.00;0.00;0.62;0.00;0.00;0.62;3.90;2.57;;;21.50;27.70;;;;;;2237921;62;20608;-63
2021/11/17 13:47:20;0.00;0.00;0.62;0.00;0.00;0.62;2.97;2.20;;;21.50;27.70;;;;;;2237720;62;20395;-65
2021/11/17 13:50:08;0.00;0.00;0.62;0.00;0.00;0.62;2.57;2.37;;;21.50;27.70;;;;;;2237461;62;20348;-65
2021/11/17 13:52:55;0.00;0.00;0.62;0.00;0.00;0.62;4.60;2.33;;;21.50;27.70;;;;;;2237942;62;20363;-64
2021/11/17 13:55:45;0.00;0.00;0.62;0.00;0.00;0.62;4.23;3.37;;;21.50;27.70;;;;;;2236741;62;20364;-65
2021/11/17 13:58:31;0.00;0.00;0.62;0.00;0.00;0.62;6.20;2.50;;;21.50;28.20;;;;;;2237895;62;20489;-63
2021/11/17 14:01:17;0.00;0.00;0.62;0.00;0.00;0.62;4.67;2.37;;;21.50;27.70;;;;;;2237860;62;20583;-64
2021/11/17 14:04:03;0.00;0.00;0.62;0.00;0.00;0.62;3.00;1.97;;;21.50;27.70;;;;;;2236451;62;20387;-64
2021/11/17 14:06:49;0.00;0.00;0.62;0.00;0.00;0.62;2.70;2.03;;;21.50;27.70;;;;;;2238165;62;20472;-64
2021/11/17 14:09:34;0.00;0.00;0.62;0.00;0.00;0.62;3.50;2.20;;;21.50;27.70;;;;;;2238489;62;20400;-64
2021/11/17 14:12:20;0.00;0.00;0.62;0.00;0.00;0.62;3.33;2.00;;;21.50;27.70;;;;;;2237979;62;20398;-64